RPC2841 RPLL-RPLL
Flight info
| Callsign | RPC2841 |
|---|---|
| Flight time | N/A |
| Altitude | 1000 |
| Route | VFR CIRCUITS |
| Aircraft | PA24/L-SDGRY/S |
Departure
| Time | 2026-05-05 09:20 |
|---|---|
| Airport | Ninoy Aquino International Airport (RPLL) |
Arrival
| Time | N/A |
|---|---|
| Airport | Ninoy Aquino International Airport (RPLL) |
| Time | Latitude | Longitude | Altitude | Speed | Heading |
|---|---|---|---|---|---|
| 2026-05-05 09:10 | 14.51761 | 121.00516 | 41 ft | 0 kts | 139° |
| 2026-05-05 09:16 | 14.51760 | 121.00517 | 41 ft | 2 kts | 135° |
| 2026-05-05 09:16 | 14.51782 | 121.00550 | 41 ft | 10 kts | 43° |
| 2026-05-05 09:17 | 14.51798 | 121.00565 | 41 ft | 0 kts | 42° |
| 2026-05-05 09:17 | 14.51815 | 121.00576 | 41 ft | 6 kts | 14° |
| 2026-05-05 09:17 | 14.51915 | 121.00600 | 41 ft | 16 kts | 10° |
| 2026-05-05 09:17 | 14.52014 | 121.00617 | 41 ft | 9 kts | 9° |
| 2026-05-05 09:18 | 14.52091 | 121.00633 | 41 ft | 13 kts | 28° |
| 2026-05-05 09:18 | 14.52078 | 121.00693 | 41 ft | 0 kts | 139° |
| 2026-05-05 09:18 | 14.51900 | 121.00875 | 38 ft | 59 kts | 135° |
| 2026-05-05 09:19 | 14.51792 | 121.00979 | 66 ft | 64 kts | 127° |
| 2026-05-05 09:19 | 14.50978 | 121.02010 | 440 ft | 79 kts | 122° |
| 2026-05-05 09:19 | 14.50597 | 121.02440 | 651 ft | 85 kts | 129° |
| 2026-05-05 09:20 | 14.50015 | 121.02545 | 803 ft | 100 kts | 200° |
| 2026-05-05 09:20 | 14.49516 | 121.01984 | 971 ft | 112 kts | 226° |
| 2026-05-05 09:20 | 14.49016 | 121.01338 | 1140 ft | 116 kts | 220° |
| 2026-05-05 09:20 | 14.48874 | 121.00591 | 1314 ft | 115 kts | 289° |
| 2026-05-05 09:21 | 14.49346 | 120.99905 | 1412 ft | 119 kts | 313° |
| 2026-05-05 09:21 | 14.49496 | 120.99718 | 1443 ft | 120 kts | 312° |
| 2026-05-05 09:21 | 14.49598 | 120.99587 | 1461 ft | 123 kts | 312° |
| 2026-05-05 09:21 | 14.50153 | 120.98877 | 1550 ft | 130 kts | 315° |
| 2026-05-05 09:22 | 14.50915 | 120.98231 | 1254 ft | 154 kts | 327° |
| 2026-05-05 09:22 | 14.51653 | 120.97586 | 1675 ft | 125 kts | 326° |
| 2026-05-05 09:22 | 14.52345 | 120.97022 | 1794 ft | 132 kts | 328° |
| 2026-05-05 09:22 | 14.53120 | 120.96444 | 1762 ft | 141 kts | 327° |
| 2026-05-05 09:23 | 14.53879 | 120.95814 | 1891 ft | 138 kts | 324° |
| 2026-05-05 09:23 | 14.54614 | 120.95194 | 1832 ft | 137 kts | 327° |
| 2026-05-05 09:23 | 14.55355 | 120.94571 | 1667 ft | 139 kts | 323° |
| 2026-05-05 09:23 | 14.56056 | 120.93966 | 1579 ft | 119 kts | 331° |
| 2026-05-05 09:24 | 14.56526 | 120.93768 | 1630 ft | 103 kts | 4° |
| 2026-05-05 09:24 | 14.56751 | 120.93791 | 1618 ft | 98 kts | 21° |